createdAt,value
2022-08-26T00:00:51.458Z,99997.38
2022-08-26T00:03:20.640Z,100003.78
2022-08-26T00:05:51.327Z,100010.66
2022-08-26T00:08:21.720Z,100004.25
2022-08-26T00:10:50.250Z,99998.72
2022-08-26T00:13:19.614Z,99999.88
2022-08-26T00:15:48.485Z,100000.47
2022-08-26T00:18:22.265Z,99998.03
2022-08-26T00:20:52.101Z,100000.91
2022-08-26T00:23:24.234Z,100004.06
2022-08-26T00:26:03.062Z,100008.94
2022-08-26T00:28:31.542Z,100003.25
2022-08-26T00:30:59.875Z,100002.81
2022-08-26T00:33:28.426Z,100006.22
2022-08-26T00:35:56.967Z,100000.38
2022-08-26T00:38:25.488Z,99997.38
2022-08-26T00:40:58.217Z,100007.06
2022-08-26T00:43:30.385Z,100005.75
2022-08-26T00:46:25.616Z,100004.16
2022-08-26T00:49:16.153Z,100003.00
2022-08-26T00:51:55.722Z,99995.44
2022-08-26T00:54:27.538Z,100007.31
2022-08-26T00:57:08.708Z,100000.47
2022-08-26T00:59:57.020Z,100006.09
2022-08-26T01:02:25.980Z,100012.41
2022-08-26T01:05:01.685Z,100008.25
2022-08-26T01:07:34.757Z,100005.97
2022-08-26T01:10:11.761Z,100008.84
2022-08-26T01:12:46.682Z,100008.28
2022-08-26T01:15:27.944Z,100006.25
2022-08-26T01:18:05.458Z,100006.97
2022-08-26T01:21:02.396Z,100004.53
2022-08-26T01:23:38.216Z,100009.53
2022-08-26T01:26:19.568Z,100016.25
2022-08-26T01:28:51.973Z,99995.56
2022-08-26T01:31:25.670Z,100006.84
2022-08-26T01:34:29.716Z,100004.72
2022-08-26T01:37:13.773Z,100002.44
2022-08-26T01:39:48.406Z,100009.28
2022-08-26T01:42:18.971Z,100017.44
2022-08-26T01:45:03.679Z,100006.31
2022-08-26T01:47:35.609Z,100011.16
2022-08-26T01:50:15.818Z,100014.72
2022-08-26T01:53:08.881Z,100013.59
2022-08-26T01:55:44.697Z,100009.44
2022-08-26T01:58:21.348Z,100009.00
2022-08-26T02:00:51.394Z,100019.44
2022-08-26T02:03:22.550Z,100013.56
2022-08-26T02:06:09.395Z,100009.44
2022-08-26T02:08:44.757Z,100017.09
2022-08-26T02:11:14.144Z,100017.66
2022-08-26T02:13:59.663Z,100022.78
2022-08-26T02:16:33.761Z,100019.66
2022-08-26T02:19:08.401Z,100003.66
2022-08-26T02:21:51.922Z,100017.34
2022-08-26T02:24:29.118Z,100020.91
2022-08-26T02:26:58.681Z,100008.59
2022-08-26T02:29:41.310Z,100021.22
2022-08-26T02:32:10.655Z,100021.75
2022-08-26T02:34:40.606Z,100023.31
2022-08-26T02:37:11.637Z,100018.75
2022-08-26T02:39:42.516Z,100016.75
2022-08-26T02:42:11.249Z,100013.47
2022-08-26T02:44:40.937Z,100021.31
2022-08-26T02:47:09.454Z,100020.03
2022-08-26T02:49:40.861Z,100017.31
2022-08-26T02:52:13.668Z,100018.59
2022-08-26T02:54:42.188Z,100010.31
2022-08-26T02:57:14.428Z,100016.00
2022-08-26T02:59:42.674Z,100029.53
2022-08-26T03:02:11.611Z,100024.66
2022-08-26T03:04:41.346Z,100019.41
2022-08-26T03:07:26.708Z,100022.78
2022-08-26T03:09:56.937Z,100018.06
2022-08-26T03:12:25.733Z,100031.91
2022-08-26T03:14:54.056Z,100027.34
2022-08-26T03:17:24.540Z,100023.78
2022-08-26T03:19:57.342Z,100035.59
2022-08-26T03:22:27.102Z,100038.56
2022-08-26T03:24:56.788Z,100038.81
2022-08-26T03:27:26.062Z,100041.50
2022-08-26T03:30:13.733Z,100045.38
2022-08-26T03:32:42.998Z,100042.47
2022-08-26T03:35:12.988Z,100038.34
2022-08-26T03:37:42.328Z,100034.06
2022-08-26T03:40:12.628Z,100036.94
2022-08-26T03:42:41.891Z,100037.56
2022-08-26T03:45:15.889Z,100045.28
2022-08-26T03:47:45.220Z,100030.50
2022-08-26T03:50:22.593Z,100029.09
2022-08-26T03:52:54.659Z,100030.09
2022-08-26T03:55:32.209Z,100037.22
2022-08-26T03:58:02.143Z,100040.47
2022-08-26T04:00:31.827Z,100035.31
2022-08-26T04:03:02.739Z,100040.28
2022-08-26T04:05:32.109Z,100046.94
2022-08-26T04:08:00.608Z,100050.19
2022-08-26T04:10:29.625Z,100045.47
2022-08-26T04:13:00.611Z,100048.03
2022-08-26T04:15:29.773Z,100042.47
2022-08-26T04:17:58.856Z,100038.66
2022-08-26T04:20:28.205Z,100043.19
2022-08-26T04:22:56.535Z,100048.34
2022-08-26T04:25:25.995Z,100036.03
2022-08-26T04:27:54.942Z,100028.91
2022-08-26T04:30:22.738Z,100033.63
2022-08-26T04:32:51.742Z,100043.19
2022-08-26T04:35:25.701Z,100042.34
2022-08-26T04:37:54.394Z,100042.47
2022-08-26T04:40:23.493Z,100034.88
2022-08-26T04:42:51.779Z,100046.56
2022-08-26T04:45:22.786Z,100043.16
2022-08-26T04:47:56.553Z,100044.13
2022-08-26T04:50:26.568Z,100040.84
2022-08-26T04:52:55.620Z,100054.38
2022-08-26T04:55:37.253Z,100060.06
2022-08-26T04:58:10.907Z,100056.75
2022-08-26T05:00:39.828Z,100057.88
2022-08-26T05:03:09.584Z,100065.00
2022-08-26T05:05:43.365Z,100058.34
2022-08-26T05:08:15.186Z,100061.91
2022-08-26T05:10:50.601Z,100060.50
2022-08-26T05:13:22.225Z,100059.25
2022-08-26T05:15:51.910Z,100059.84
2022-08-26T05:18:24.028Z,100058.63
2022-08-26T05:20:54.876Z,100057.28
2022-08-26T05:23:24.728Z,100047.66
2022-08-26T05:25:59.342Z,100049.41
2022-08-26T05:28:30.163Z,100059.06
2022-08-26T05:30:58.588Z,100066.03
2022-08-26T05:33:27.383Z,100074.31
2022-08-26T05:35:56.659Z,100076.41
2022-08-26T05:38:25.012Z,100080.97
2022-08-26T05:41:00.863Z,100077.56
2022-08-26T05:43:29.063Z,100082.53
2022-08-26T05:46:07.076Z,100081.50
2022-08-26T05:48:35.645Z,100083.97
2022-08-26T05:51:10.249Z,100085.84
2022-08-26T05:53:40.691Z,100093.28
2022-08-26T05:56:16.157Z,100098.75
2022-08-26T05:58:46.237Z,100100.91
2022-08-26T06:01:21.462Z,100098.97
2022-08-26T06:03:56.378Z,100090.41
2022-08-26T06:06:37.364Z,100090.78
2022-08-26T06:09:10.940Z,100087.50
2022-08-26T06:11:40.037Z,100100.41
2022-08-26T06:14:09.154Z,100096.69
2022-08-26T06:16:41.304Z,100097.81
2022-08-26T06:19:11.790Z,100093.13
2022-08-26T06:21:42.802Z,100091.41
2022-08-26T06:24:58.025Z,100101.28
2022-08-26T06:27:47.111Z,100100.56
2022-08-26T06:30:16.114Z,100094.41
2022-08-26T06:32:46.150Z,100092.66
2022-08-26T06:35:15.887Z,100097.38
2022-08-26T06:37:44.838Z,100089.47
2022-08-26T06:40:13.001Z,100091.75
2022-08-26T06:42:41.104Z,100087.91
2022-08-26T06:45:10.843Z,100103.38
2022-08-26T06:47:39.868Z,100102.59
2022-08-26T06:50:08.474Z,100101.72
2022-08-26T06:52:37.054Z,100102.69
2022-08-26T06:55:06.653Z,100103.50
2022-08-26T06:57:37.719Z,100096.44
2022-08-26T07:00:11.918Z,100112.25
2022-08-26T07:02:40.998Z,100121.25
2022-08-26T07:05:16.423Z,100112.88
2022-08-26T07:07:44.359Z,100104.97
2022-08-26T07:10:13.555Z,100114.47
2022-08-26T07:12:43.313Z,100108.97
2022-08-26T07:15:16.468Z,100113.16
2022-08-26T07:17:44.877Z,100109.53
2022-08-26T07:20:14.299Z,100112.31
2022-08-26T07:22:44.986Z,100113.56
2022-08-26T07:25:13.542Z,100117.13
2022-08-26T07:27:42.005Z,100118.00
2022-08-26T07:30:11.541Z,100124.00
2022-08-26T07:32:43.509Z,100114.97
2022-08-26T07:35:12.095Z,100120.25
2022-08-26T07:37:41.385Z,100120.78
2022-08-26T07:40:10.204Z,100128.34
2022-08-26T07:42:40.930Z,100115.38
2022-08-26T07:45:09.164Z,100125.66
2022-08-26T07:47:41.141Z,100134.63
2022-08-26T07:50:09.733Z,100123.53
2022-08-26T07:52:38.325Z,100128.75
2022-08-26T07:55:11.081Z,100127.78
2022-08-26T07:57:40.359Z,100126.84
2022-08-26T08:00:17.299Z,100120.78
2022-08-26T08:02:46.133Z,100125.63
2022-08-26T08:05:22.045Z,100127.06
2022-08-26T08:08:19.684Z,100121.84
2022-08-26T08:10:45.082Z,100132.09
2022-08-26T08:13:17.354Z,100132.81
2022-08-26T08:15:48.172Z,100130.47
2022-08-26T08:18:20.491Z,100126.38
2022-08-26T08:20:59.063Z,100125.25
2022-08-26T08:23:33.835Z,100128.34
2022-08-26T08:26:10.316Z,100117.78
2022-08-26T08:28:40.141Z,100130.06
2022-08-26T08:31:10.016Z,100127.16
2022-08-26T08:33:39.717Z,100117.94
2022-08-26T08:36:09.278Z,100126.00
2022-08-26T08:38:40.536Z,100127.00
2022-08-26T08:41:57.774Z,100128.84
2022-08-26T08:47:01.811Z,100130.47
2022-08-26T08:49:32.382Z,100125.94
2022-08-26T08:52:13.446Z,100126.75
2022-08-26T08:54:41.571Z,100117.25
2022-08-26T08:57:26.978Z,100105.69
2022-08-26T09:00:13.716Z,100109.19
2022-08-26T09:03:09.574Z,100102.81
2022-08-26T09:05:46.697Z,100111.88
2022-08-26T09:08:23.226Z,100097.72
2022-08-26T09:11:00.719Z,100097.75
2022-08-26T09:13:31.912Z,100099.19
2022-08-26T09:16:19.155Z,100087.59
2022-08-26T09:19:14.474Z,100097.28
2022-08-26T09:21:42.529Z,100098.13
2022-08-26T09:24:11.350Z,100084.88
2022-08-26T09:26:45.407Z,100093.00
2022-08-26T09:29:25.846Z,100085.25
2022-08-26T09:32:24.282Z,100089.06
2022-08-26T09:35:04.477Z,100084.78
2022-08-26T09:40:29.520Z,100071.63
2022-08-26T09:43:22.651Z,100068.88
2022-08-26T09:45:59.184Z,100067.00
2022-08-26T09:48:40.638Z,100073.06
2022-08-26T09:51:23.993Z,100069.75
2022-08-26T09:54:03.936Z,100064.91
2022-08-26T09:56:39.783Z,100056.31
2022-08-26T09:59:11.979Z,100059.34
2022-08-26T10:01:45.090Z,100057.03
2022-08-26T10:04:26.720Z,100044.84
2022-08-26T10:07:01.393Z,100036.13
2022-08-26T10:09:43.475Z,100040.41
2022-08-26T10:12:18.912Z,100034.72
2022-08-26T10:14:54.989Z,100031.75
2022-08-26T10:18:25.091Z,100014.75
2022-08-26T10:21:07.255Z,100010.00
2022-08-26T10:23:45.076Z,100020.03
2022-08-26T10:26:26.723Z,100011.06
2022-08-26T10:29:22.986Z,100006.69
2022-08-26T10:32:03.647Z,100001.19
2022-08-26T10:34:35.033Z,99998.03
2022-08-26T10:37:18.249Z,99988.09
2022-08-26T10:40:00.972Z,99988.63
2022-08-26T10:42:37.754Z,99984.66
2022-08-26T10:45:19.808Z,99990.63
2022-08-26T10:47:58.693Z,99991.06
2022-08-26T10:50:37.478Z,99990.69
2022-08-26T10:53:32.525Z,100000.41
2022-08-26T10:56:29.719Z,100003.63
2022-08-26T10:59:04.959Z,99995.16
2022-08-26T11:02:29.772Z,99979.38
2022-08-26T11:05:06.044Z,99977.06
2022-08-26T11:07:36.752Z,99979.44
2022-08-26T11:10:42.605Z,99973.78
2022-08-26T11:13:12.288Z,99972.91
2022-08-26T11:15:40.058Z,99974.88
2022-08-26T11:18:12.155Z,99980.22
2022-08-26T11:20:48.730Z,99978.78
2022-08-26T11:23:22.865Z,99974.78
2022-08-26T11:26:10.165Z,99959.59
2022-08-26T11:28:50.361Z,99960.03
2022-08-26T11:31:25.579Z,99963.69
2022-08-26T11:33:59.876Z,99965.19
2022-08-26T11:36:35.302Z,99967.78
2022-08-26T11:39:36.883Z,99958.69
2022-08-26T11:42:28.784Z,99949.03
2022-08-26T11:44:58.891Z,99942.69
2022-08-26T11:47:32.459Z,99934.00
2022-08-26T11:50:25.043Z,99940.81
2022-08-26T11:53:06.171Z,99926.22
2022-08-26T11:55:41.899Z,99916.31
2022-08-26T11:58:13.519Z,99916.09
2022-08-26T12:00:45.688Z,99921.22
2022-08-26T12:03:25.169Z,99917.41
2022-08-26T12:05:54.247Z,99925.66
2022-08-26T12:08:28.618Z,99908.31
2022-08-26T12:11:09.881Z,99924.88
2022-08-26T12:13:39.240Z,99923.19
2022-08-26T12:16:07.869Z,99916.44
2022-08-26T12:18:38.950Z,99904.81
2022-08-26T12:21:20.357Z,99917.81
2022-08-26T12:24:04.931Z,99922.03
2022-08-26T12:26:37.567Z,99918.72
2022-08-26T12:29:32.071Z,99906.84
2022-08-26T12:32:18.044Z,99911.75
2022-08-26T12:34:49.071Z,99903.06
2022-08-26T12:37:19.115Z,99914.31
2022-08-26T12:39:49.414Z,99902.50
2022-08-26T12:42:21.962Z,99896.34
2022-08-26T12:45:04.562Z,99889.19
2022-08-26T12:47:42.196Z,99894.69
2022-08-26T12:50:31.232Z,99887.91
2022-08-26T12:52:59.654Z,99891.28
2022-08-26T12:55:53.402Z,99885.78
2022-08-26T12:58:38.771Z,99872.44
2022-08-26T13:01:07.218Z,99879.66
2022-08-26T13:03:38.761Z,99874.53
2022-08-26T13:06:15.441Z,99860.75
2022-08-26T13:09:10.032Z,99866.06
2022-08-26T13:11:41.525Z,99851.66
2022-08-26T13:14:21.100Z,99846.78
2022-08-26T13:16:53.267Z,99834.28
2022-08-26T13:19:25.775Z,99824.13
2022-08-26T13:22:00.279Z,99834.50
2022-08-26T13:24:36.159Z,99837.47
2022-08-26T13:27:07.547Z,99830.03
2022-08-26T13:29:37.244Z,99828.13
2022-08-26T13:32:07.949Z,99833.84
2022-08-26T13:34:38.189Z,99831.94
2022-08-26T13:37:07.387Z,99821.13
2022-08-26T13:39:35.359Z,99820.47
2022-08-26T13:42:03.740Z,99825.13
2022-08-26T13:44:31.480Z,99822.16
2022-08-26T13:47:00.317Z,99829.16
2022-08-26T13:49:28.456Z,99820.66
2022-08-26T13:51:56.923Z,99823.41
2022-08-26T13:54:24.744Z,99820.66
2022-08-26T13:56:53.690Z,99832.72
2022-08-26T13:59:21.812Z,99824.66
2022-08-26T14:01:50.750Z,99817.03
2022-08-26T14:04:26.932Z,99814.94
2022-08-26T14:06:55.968Z,99802.44
2022-08-26T14:09:24.544Z,99804.56
2022-08-26T14:11:54.296Z,99806.69
2022-08-26T14:14:23.630Z,99797.38
2022-08-26T14:17:00.119Z,99802.69
2022-08-26T14:19:30.778Z,99796.53
2022-08-26T14:22:01.360Z,99804.38
2022-08-26T14:24:30.281Z,99792.53
2022-08-26T14:27:00.179Z,99795.47
2022-08-26T14:29:28.308Z,99787.44
2022-08-26T14:32:03.507Z,99785.06
2022-08-26T14:34:31.823Z,99782.31
2022-08-26T14:36:59.864Z,99786.75
2022-08-26T14:39:37.818Z,99779.09
2022-08-26T14:42:07.579Z,99781.84
2022-08-26T14:44:37.515Z,99790.53
2022-08-26T14:47:07.458Z,99784.66
2022-08-26T14:49:36.699Z,99805.63
2022-08-26T14:52:05.866Z,99801.84
2022-08-26T14:54:34.057Z,99799.31
2022-08-26T14:57:08.138Z,99809.28
2022-08-26T14:59:40.990Z,99798.25
2022-08-26T15:02:13.661Z,99800.78
2022-08-26T15:04:51.442Z,99804.59
2022-08-26T15:07:19.740Z,99802.25
2022-08-26T15:09:50.195Z,99807.78
2022-08-26T15:12:18.456Z,99808.63
2022-08-26T15:14:48.572Z,99815.63
2022-08-26T15:17:17.895Z,99811.81
2022-08-26T15:19:47.621Z,99811.81
2022-08-26T15:22:15.871Z,99825.16
2022-08-26T15:24:44.012Z,99806.53
2022-08-26T15:27:12.408Z,99826.00
2022-08-26T15:29:41.553Z,99819.03
2022-08-26T15:32:10.096Z,99842.13
2022-08-26T15:34:38.964Z,99855.47
2022-08-26T15:37:07.073Z,99852.72
2022-08-26T15:39:35.525Z,99863.34
2022-08-26T15:42:04.317Z,99848.91
2022-08-26T15:44:34.370Z,99851.88
2022-08-26T15:47:02.862Z,99847.22
2022-08-26T15:49:31.125Z,99836.84
2022-08-26T15:51:59.064Z,99842.97
2022-08-26T15:54:27.262Z,99839.16
2022-08-26T15:56:56.374Z,99836.16
2022-08-26T15:59:25.287Z,99851.41
2022-08-26T16:01:53.618Z,99864.50
2022-08-26T16:04:22.904Z,99854.56
2022-08-26T16:06:53.305Z,99874.22
2022-08-26T16:09:26.947Z,99896.25
2022-08-26T16:11:56.285Z,99879.41
2022-08-26T16:14:24.512Z,99915.81
2022-08-26T16:16:54.226Z,99922.75
2022-08-26T16:19:22.290Z,99959.13
2022-08-26T16:21:52.109Z,99973.81
2022-08-26T16:24:28.370Z,99987.09
2022-08-26T16:26:59.289Z,99966.84
2022-08-26T16:29:27.916Z,99952.41
2022-08-26T16:31:56.837Z,99960.28
2022-08-26T16:34:25.181Z,99972.19
2022-08-26T16:36:53.534Z,99972.69
2022-08-26T16:39:21.912Z,99973.41
2022-08-26T16:41:51.481Z,99995.75
2022-08-26T16:44:19.698Z,100004.63
2022-08-26T16:46:48.328Z,100007.47
2022-08-26T16:49:17.478Z,100010.53
2022-08-26T16:51:46.837Z,100010.59
2022-08-26T16:54:15.118Z,100034.94
2022-08-26T16:56:43.979Z,100049.69
2022-08-26T16:59:12.064Z,100058.94
2022-08-26T17:01:40.390Z,100065.25
2022-08-26T17:04:08.927Z,100067.34
2022-08-26T17:06:38.264Z,100065.63
2022-08-26T17:09:08.751Z,100070.09
2022-08-26T17:11:36.866Z,100076.75
2022-08-26T17:14:06.531Z,100063.06
2022-08-26T17:16:36.485Z,100058.13
2022-08-26T17:19:06.286Z,100066.69
2022-08-26T17:21:36.546Z,100046.72
2022-08-26T17:24:06.257Z,100056.22
2022-08-26T17:26:37.270Z,100056.34
2022-08-26T17:29:07.663Z,100036.38
2022-08-26T17:31:35.809Z,100032.06
2022-08-26T17:34:04.381Z,100028.16
2022-08-26T17:36:33.653Z,100032.44
2022-08-26T17:39:02.750Z,100014.38
2022-08-26T17:41:31.048Z,100024.78
2022-08-26T17:43:59.546Z,100011.50
2022-08-26T17:46:28.231Z,100022.63
2022-08-26T17:48:56.696Z,100020.75
2022-08-26T17:51:26.145Z,100019.72
2022-08-26T17:53:54.561Z,100021.44
2022-08-26T17:56:28.163Z,100024.50
2022-08-26T17:59:03.525Z,100044.50
2022-08-26T18:01:33.152Z,100034.94
2022-08-26T18:04:01.941Z,100038.72
2022-08-26T18:06:31.306Z,100032.22
2022-08-26T18:09:01.075Z,100039.75
2022-08-26T18:11:29.882Z,100031.88
2022-08-26T18:13:59.584Z,100027.81
2022-08-26T18:16:31.677Z,100033.06
2022-08-26T18:19:00.491Z,100028.09
2022-08-26T18:21:28.873Z,100027.75
2022-08-26T18:23:58.639Z,100033.88
2022-08-26T18:26:49.529Z,100033.34
2022-08-26T18:29:19.689Z,100053.66
2022-08-26T18:31:49.640Z,100043.25
2022-08-26T18:34:19.546Z,100039.66
2022-08-26T18:36:48.523Z,100040.19
2022-08-26T18:39:19.547Z,100054.19
2022-08-26T18:41:53.658Z,100064.56
2022-08-26T18:44:23.414Z,100074.63
2022-08-26T18:46:53.227Z,100070.38
2022-08-26T18:49:23.173Z,100069.16
2022-08-26T18:51:52.650Z,100088.13
2022-08-26T18:54:22.009Z,100094.28
2022-08-26T18:56:52.118Z,100095.78
2022-08-26T18:59:29.558Z,100084.88
2022-08-26T19:02:00.517Z,100080.59
2022-08-26T19:04:28.765Z,100095.78
2022-08-26T19:06:58.091Z,100099.88
2022-08-26T19:09:26.630Z,100095.25
2022-08-26T19:14:30.531Z,100087.06
2022-08-26T19:16:59.208Z,100098.66
2022-08-26T19:19:27.865Z,100098.13
2022-08-26T19:21:56.362Z,100099.34
2022-08-26T19:24:28.153Z,100104.44
2022-08-26T19:27:00.323Z,100096.56
2022-08-26T19:29:35.379Z,100094.47
2022-08-26T19:32:04.741Z,100097.78
2022-08-26T19:34:32.876Z,100099.06
2022-08-26T19:37:01.074Z,100103.38
2022-08-26T19:39:29.551Z,100104.69
2022-08-26T19:41:57.594Z,100116.63
2022-08-26T19:44:45.624Z,100103.09
2022-08-26T19:47:14.857Z,100111.59
2022-08-26T19:49:44.189Z,100095.50
2022-08-26T19:52:12.919Z,100112.50
2022-08-26T19:54:41.436Z,100102.78
2022-08-26T19:57:11.226Z,100104.16
2022-08-26T19:59:40.404Z,100096.50
2022-08-26T20:02:11.103Z,100094.97
2022-08-26T20:04:41.863Z,100082.00
2022-08-26T20:07:18.511Z,100092.56
2022-08-26T20:09:48.717Z,100098.50
2022-08-26T20:12:18.852Z,100094.88
2022-08-26T20:14:47.670Z,100088.88
2022-08-26T20:17:17.361Z,100094.78
2022-08-26T20:20:04.733Z,100094.97
2022-08-26T20:22:33.730Z,100099.31
2022-08-26T20:25:02.362Z,100107.34
2022-08-26T20:27:37.912Z,100112.09
2022-08-26T20:30:09.087Z,100136.31
2022-08-26T20:32:38.488Z,100138.19
2022-08-26T20:35:11.527Z,100152.19
2022-08-26T20:37:41.271Z,100125.94
2022-08-26T20:40:12.537Z,100136.06
2022-08-26T20:42:40.986Z,100134.91
2022-08-26T20:45:09.843Z,100130.16
2022-08-26T20:47:38.047Z,100130.16
2022-08-26T20:50:08.081Z,100141.25
2022-08-26T20:52:36.738Z,100133.25
2022-08-26T20:55:06.865Z,100125.63
2022-08-26T20:57:34.810Z,100127.00
2022-08-26T21:00:04.649Z,100126.66
2022-08-26T21:02:32.531Z,100130.41
2022-08-26T21:05:01.706Z,100129.56
2022-08-26T21:07:30.295Z,100131.25
2022-08-26T21:09:58.685Z,100130.41
2022-08-26T21:12:28.586Z,100132.97
2022-08-26T21:14:59.156Z,100130.09
2022-08-26T21:17:27.310Z,100147.31
2022-08-26T21:19:55.532Z,100147.31
2022-08-26T21:22:24.065Z,100155.97
2022-08-26T21:24:52.241Z,100164.81
2022-08-26T21:27:26.201Z,100157.16
2022-08-26T21:29:54.797Z,100150.72
2022-08-26T21:32:24.415Z,100163.56
2022-08-26T21:34:56.354Z,100159.22
2022-08-26T21:37:26.103Z,100165.78
2022-08-26T21:39:59.047Z,100156.13
2022-08-26T21:42:28.679Z,100150.03
2022-08-26T21:44:57.652Z,100155.69
2022-08-26T21:47:26.216Z,100154.50
2022-08-26T21:49:54.643Z,100148.16
2022-08-26T21:52:22.889Z,100165.09
2022-08-26T21:54:51.237Z,100164.69
2022-08-26T21:57:20.641Z,100167.31
2022-08-26T21:59:48.551Z,100171.59
2022-08-26T22:02:16.930Z,100166.50
2022-08-26T22:04:48.831Z,100172.25
2022-08-26T22:07:19.712Z,100172.28
2022-08-26T22:09:49.643Z,100154.16
2022-08-26T22:12:18.393Z,100161.28
2022-08-26T22:14:47.774Z,100174.13
2022-08-26T22:17:17.332Z,100190.31
2022-08-26T22:19:45.915Z,100170.31
2022-08-26T22:22:14.924Z,100187.19
2022-08-26T22:24:43.673Z,100184.47
2022-08-26T22:27:14.016Z,100191.59
2022-08-26T22:29:42.136Z,100188.41
2022-08-26T22:32:11.416Z,100204.84
2022-08-26T22:34:40.874Z,100203.09
2022-08-26T22:37:08.713Z,100202.25
2022-08-26T22:39:36.849Z,100209.97
2022-08-26T22:42:06.098Z,100210.56
2022-08-26T22:44:36.522Z,100219.72
2022-08-26T22:47:04.498Z,100218.97
2022-08-26T22:49:32.764Z,100226.84
2022-08-26T22:52:00.669Z,100225.84
2022-08-26T22:54:29.241Z,100222.75
2022-08-26T22:56:57.482Z,100229.88
2022-08-26T22:59:27.041Z,100230.75
2022-08-26T23:01:55.002Z,100228.03
2022-08-26T23:04:24.164Z,100236.75
2022-08-26T23:06:52.110Z,100223.19
2022-08-26T23:09:20.109Z,100222.91
2022-08-26T23:11:49.772Z,100227.34
2022-08-26T23:14:19.345Z,100218.91
2022-08-26T23:16:48.468Z,100221.63
2022-08-26T23:19:21.322Z,100224.78
2022-08-26T23:21:50.553Z,100234.75
2022-08-26T23:24:18.634Z,100235.75
2022-08-26T23:26:47.090Z,100237.34
2022-08-26T23:29:15.904Z,100241.06
2022-08-26T23:31:44.565Z,100238.34
2022-08-26T23:34:32.410Z,100236.63
2022-08-26T23:37:02.667Z,100229.63
2022-08-26T23:39:36.564Z,100233.91
2022-08-26T23:42:06.501Z,100235.06
2022-08-26T23:44:35.299Z,100227.91
2022-08-26T23:47:05.221Z,100224.03
2022-08-26T23:49:34.468Z,100215.47
2022-08-26T23:52:22.988Z,100223.47
2022-08-26T23:54:53.557Z,100220.03
2022-08-26T23:57:24.053Z,100214.03
2022-08-26T23:59:53.806Z,100212.16
